sensor_id;sensor_type;location;lat;lon;timestamp;temperature;humidity
15143;DHT22;7672;50.834;6.286;2024-02-23T00:01:54;9.30;99.90
15143;DHT22;7672;50.834;6.286;2024-02-23T00:04:21;9.30;99.90
15143;DHT22;7672;50.834;6.286;2024-02-23T00:06:48;9.30;99.90
15143;DHT22;7672;50.834;6.286;2024-02-23T00:09:15;9.30;99.90
15143;DHT22;7672;50.834;6.286;2024-02-23T00:11:42;9.30;99.90
15143;DHT22;7672;50.834;6.286;2024-02-23T00:14:12;9.30;99.90
15143;DHT22;7672;50.834;6.286;2024-02-23T00:16:40;9.30;99.90
15143;DHT22;7672;50.834;6.286;2024-02-23T00:19:08;9.20;99.90
15143;DHT22;7672;50.834;6.286;2024-02-23T00:21:38;9.20;99.90
15143;DHT22;7672;50.834;6.286;2024-02-23T00:24:06;9.20;99.90
15143;DHT22;7672;50.834;6.286;2024-02-23T00:26:33;9.20;99.90
15143;DHT22;7672;50.834;6.286;2024-02-23T00:29:00;9.10;99.90
15143;DHT22;7672;50.834;6.286;2024-02-23T00:31:27;9.10;99.90
15143;DHT22;7672;50.834;6.286;2024-02-23T00:33:54;9.10;99.90
15143;DHT22;7672;50.834;6.286;2024-02-23T00:36:21;9.00;99.90
15143;DHT22;7672;50.834;6.286;2024-02-23T00:38:48;9.00;99.90
15143;DHT22;7672;50.834;6.286;2024-02-23T00:41:15;8.90;99.90
15143;DHT22;7672;50.834;6.286;2024-02-23T00:43:42;8.90;99.90
15143;DHT22;7672;50.834;6.286;2024-02-23T00:46:09;8.90;99.90
15143;DHT22;7672;50.834;6.286;2024-02-23T00:48:36;8.80;99.90
15143;DHT22;7672;50.834;6.286;2024-02-23T00:51:03;8.80;99.90
15143;DHT22;7672;50.834;6.286;2024-02-23T00:53:31;8.70;99.90
15143;DHT22;7672;50.834;6.286;2024-02-23T00:55:58;8.80;99.90
15143;DHT22;7672;50.834;6.286;2024-02-23T00:58:25;8.80;99.90
15143;DHT22;7672;50.834;6.286;2024-02-23T01:00:52;8.70;99.90
15143;DHT22;7672;50.834;6.286;2024-02-23T01:03:19;8.70;99.90
15143;DHT22;7672;50.834;6.286;2024-02-23T01:05:46;8.70;99.90
15143;DHT22;7672;50.834;6.286;2024-02-23T01:08:14;8.70;99.90
15143;DHT22;7672;50.834;6.286;2024-02-23T01:10:41;8.60;99.90
15143;DHT22;7672;50.834;6.286;2024-02-23T01:13:08;8.60;99.90
15143;DHT22;7672;50.834;6.286;2024-02-23T01:15:35;8.60;99.90
15143;DHT22;7672;50.834;6.286;2024-02-23T01:18:03;8.50;99.90
15143;DHT22;7672;50.834;6.286;2024-02-23T01:20:32;8.50;99.90
15143;DHT22;7672;50.834;6.286;2024-02-23T01:23:00;8.50;99.90
15143;DHT22;7672;50.834;6.286;2024-02-23T01:25:27;8.40;99.90
15143;DHT22;7672;50.834;6.286;2024-02-23T01:27:54;8.40;99.90
15143;DHT22;7672;50.834;6.286;2024-02-23T01:30:21;8.40;99.90
15143;DHT22;7672;50.834;6.286;2024-02-23T01:32:48;8.30;99.90
15143;DHT22;7672;50.834;6.286;2024-02-23T01:35:17;8.30;99.90
15143;DHT22;7672;50.834;6.286;2024-02-23T01:37:44;8.20;99.90
15143;DHT22;7672;50.834;6.286;2024-02-23T01:40:11;8.20;99.90
15143;DHT22;7672;50.834;6.286;2024-02-23T01:42:39;8.20;99.90
15143;DHT22;7672;50.834;6.286;2024-02-23T01:45:06;8.10;99.90
15143;DHT22;7672;50.834;6.286;2024-02-23T01:47:34;8.10;99.90
15143;DHT22;7672;50.834;6.286;2024-02-23T01:50:01;8.10;99.90
15143;DHT22;7672;50.834;6.286;2024-02-23T01:52:30;8.10;99.90
15143;DHT22;7672;50.834;6.286;2024-02-23T01:54:57;8.10;99.90
15143;DHT22;7672;50.834;6.286;2024-02-23T01:57:24;8.10;99.90
15143;DHT22;7672;50.834;6.286;2024-02-23T02:00:16;8.00;99.90
15143;DHT22;7672;50.834;6.286;2024-02-23T02:02:51;8.10;99.90
15143;DHT22;7672;50.834;6.286;2024-02-23T02:05:18;8.00;99.90
15143;DHT22;7672;50.834;6.286;2024-02-23T02:07:47;8.00;99.90
15143;DHT22;7672;50.834;6.286;2024-02-23T02:14:03;8.10;99.90
15143;DHT22;7672;50.834;6.286;2024-02-23T02:16:30;7.90;99.90
15143;DHT22;7672;50.834;6.286;2024-02-23T02:18:59;7.90;99.90
15143;DHT22;7672;50.834;6.286;2024-02-23T02:21:27;7.90;99.90
15143;DHT22;7672;50.834;6.286;2024-02-23T02:23:55;7.90;99.90
15143;DHT22;7672;50.834;6.286;2024-02-23T02:26:23;7.90;99.90
15143;DHT22;7672;50.834;6.286;2024-02-23T02:28:50;7.90;99.90
15143;DHT22;7672;50.834;6.286;2024-02-23T02:31:17;7.90;99.90
15143;DHT22;7672;50.834;6.286;2024-02-23T02:33:44;7.90;99.90
15143;DHT22;7672;50.834;6.286;2024-02-23T02:36:11;7.90;99.90
15143;DHT22;7672;50.834;6.286;2024-02-23T02:38:38;7.90;99.90
15143;DHT22;7672;50.834;6.286;2024-02-23T02:41:05;7.90;99.90
15143;DHT22;7672;50.834;6.286;2024-02-23T02:43:33;7.90;99.90
15143;DHT22;7672;50.834;6.286;2024-02-23T02:46:00;7.90;99.90
15143;DHT22;7672;50.834;6.286;2024-02-23T02:48:27;7.90;99.90
15143;DHT22;7672;50.834;6.286;2024-02-23T02:50:54;7.90;99.90
15143;DHT22;7672;50.834;6.286;2024-02-23T02:53:22;7.90;99.90
15143;DHT22;7672;50.834;6.286;2024-02-23T02:55:48;7.90;99.90
15143;DHT22;7672;50.834;6.286;2024-02-23T02:58:22;7.90;99.90
15143;DHT22;7672;50.834;6.286;2024-02-23T03:00:58;7.80;99.90
15143;DHT22;7672;50.834;6.286;2024-02-23T03:03:25;7.80;99.90
15143;DHT22;7672;50.834;6.286;2024-02-23T03:05:52;7.80;99.90
15143;DHT22;7672;50.834;6.286;2024-02-23T03:08:19;7.80;99.90
15143;DHT22;7672;50.834;6.286;2024-02-23T03:10:46;7.80;99.90
15143;DHT22;7672;50.834;6.286;2024-02-23T03:13:13;7.80;99.90
15143;DHT22;7672;50.834;6.286;2024-02-23T03:15:40;7.90;99.90
15143;DHT22;7672;50.834;6.286;2024-02-23T03:18:07;7.90;99.90
15143;DHT22;7672;50.834;6.286;2024-02-23T03:20:36;7.90;99.90
15143;DHT22;7672;50.834;6.286;2024-02-23T03:23:03;7.90;99.90
15143;DHT22;7672;50.834;6.286;2024-02-23T03:25:30;7.90;99.90
15143;DHT22;7672;50.834;6.286;2024-02-23T03:27:57;7.90;99.90
15143;DHT22;7672;50.834;6.286;2024-02-23T03:30:24;7.90;99.90
15143;DHT22;7672;50.834;6.286;2024-02-23T03:32:51;8.00;99.90
15143;DHT22;7672;50.834;6.286;2024-02-23T03:35:18;8.00;99.90
15143;DHT22;7672;50.834;6.286;2024-02-23T03:37:45;8.00;99.90
15143;DHT22;7672;50.834;6.286;2024-02-23T03:40:12;8.10;99.90
15143;DHT22;7672;50.834;6.286;2024-02-23T03:42:40;8.10;99.90
15143;DHT22;7672;50.834;6.286;2024-02-23T03:45:07;8.10;99.90
15143;DHT22;7672;50.834;6.286;2024-02-23T03:47:34;8.20;99.90
15143;DHT22;7672;50.834;6.286;2024-02-23T03:50:02;8.20;99.90
15143;DHT22;7672;50.834;6.286;2024-02-23T03:52:29;8.20;99.90
15143;DHT22;7672;50.834;6.286;2024-02-23T03:54:56;8.30;99.90
15143;DHT22;7672;50.834;6.286;2024-02-23T03:57:23;8.30;99.90
15143;DHT22;7672;50.834;6.286;2024-02-23T03:59:54;8.30;99.90
15143;DHT22;7672;50.834;6.286;2024-02-23T04:02:22;8.40;99.90
15143;DHT22;7672;50.834;6.286;2024-02-23T04:04:49;8.40;99.90
15143;DHT22;7672;50.834;6.286;2024-02-23T04:07:16;8.40;99.90
15143;DHT22;7672;50.834;6.286;2024-02-23T04:09:43;8.40;99.90
15143;DHT22;7672;50.834;6.286;2024-02-23T04:12:11;8.50;99.90
15143;DHT22;7672;50.834;6.286;2024-02-23T04:14:39;8.60;99.90
15143;DHT22;7672;50.834;6.286;2024-02-23T04:17:07;8.50;99.90
15143;DHT22;7672;50.834;6.286;2024-02-23T04:19:34;8.50;99.90
15143;DHT22;7672;50.834;6.286;2024-02-23T04:22:01;8.50;99.90
15143;DHT22;7672;50.834;6.286;2024-02-23T04:24:28;8.50;99.90
15143;DHT22;7672;50.834;6.286;2024-02-23T04:26:55;8.50;99.90
15143;DHT22;7672;50.834;6.286;2024-02-23T04:29:22;8.50;99.90
15143;DHT22;7672;50.834;6.286;2024-02-23T04:31:50;8.50;99.90
15143;DHT22;7672;50.834;6.286;2024-02-23T04:34:17;8.50;99.90
15143;DHT22;7672;50.834;6.286;2024-02-23T04:36:44;8.50;99.90
15143;DHT22;7672;50.834;6.286;2024-02-23T04:39:11;8.50;99.90
15143;DHT22;7672;50.834;6.286;2024-02-23T04:41:38;8.50;99.90
15143;DHT22;7672;50.834;6.286;2024-02-23T04:44:05;8.50;99.90
15143;DHT22;7672;50.834;6.286;2024-02-23T04:46:32;8.50;99.90
15143;DHT22;7672;50.834;6.286;2024-02-23T04:49:02;8.50;99.90
15143;DHT22;7672;50.834;6.286;2024-02-23T04:51:29;8.40;99.90
15143;DHT22;7672;50.834;6.286;2024-02-23T04:53:56;8.40;99.90
15143;DHT22;7672;50.834;6.286;2024-02-23T04:56:23;8.40;99.90
15143;DHT22;7672;50.834;6.286;2024-02-23T04:58:53;8.40;99.90
15143;DHT22;7672;50.834;6.286;2024-02-23T05:01:20;8.40;99.90
15143;DHT22;7672;50.834;6.286;2024-02-23T05:03:47;8.40;99.90
15143;DHT22;7672;50.834;6.286;2024-02-23T05:06:14;8.40;99.90
15143;DHT22;7672;50.834;6.286;2024-02-23T05:08:41;8.40;99.90
15143;DHT22;7672;50.834;6.286;2024-02-23T05:11:08;8.40;99.90
15143;DHT22;7672;50.834;6.286;2024-02-23T05:13:35;8.40;99.90
15143;DHT22;7672;50.834;6.286;2024-02-23T05:16:02;8.40;99.90
15143;DHT22;7672;50.834;6.286;2024-02-23T05:18:30;8.40;99.90
15143;DHT22;7672;50.834;6.286;2024-02-23T05:20:57;8.40;99.90
15143;DHT22;7672;50.834;6.286;2024-02-23T05:23:24;8.40;99.90
15143;DHT22;7672;50.834;6.286;2024-02-23T05:25:51;8.40;99.90
15143;DHT22;7672;50.834;6.286;2024-02-23T05:28:18;8.40;99.90
15143;DHT22;7672;50.834;6.286;2024-02-23T05:30:45;8.40;99.90
15143;DHT22;7672;50.834;6.286;2024-02-23T05:33:12;8.40;99.90
15143;DHT22;7672;50.834;6.286;2024-02-23T05:35:39;8.40;99.90
15143;DHT22;7672;50.834;6.286;2024-02-23T05:38:06;8.40;99.90
15143;DHT22;7672;50.834;6.286;2024-02-23T05:40:33;8.40;99.90
15143;DHT22;7672;50.834;6.286;2024-02-23T05:43:00;8.40;99.90
15143;DHT22;7672;50.834;6.286;2024-02-23T05:45:27;8.40;99.90
15143;DHT22;7672;50.834;6.286;2024-02-23T05:47:55;8.40;99.90
15143;DHT22;7672;50.834;6.286;2024-02-23T05:50:22;8.30;99.90
15143;DHT22;7672;50.834;6.286;2024-02-23T05:52:49;8.30;99.90
15143;DHT22;7672;50.834;6.286;2024-02-23T05:55:18;8.30;99.90
15143;DHT22;7672;50.834;6.286;2024-02-23T05:57:45;8.30;99.90
15143;DHT22;7672;50.834;6.286;2024-02-23T06:00:12;8.30;99.90
15143;DHT22;7672;50.834;6.286;2024-02-23T06:02:42;8.20;99.90
15143;DHT22;7672;50.834;6.286;2024-02-23T06:05:09;8.20;99.90
15143;DHT22;7672;50.834;6.286;2024-02-23T06:07:36;8.20;99.90
15143;DHT22;7672;50.834;6.286;2024-02-23T06:10:04;8.10;99.90
15143;DHT22;7672;50.834;6.286;2024-02-23T06:12:32;8.10;99.90
15143;DHT22;7672;50.834;6.286;2024-02-23T06:14:59;8.10;99.90
15143;DHT22;7672;50.834;6.286;2024-02-23T06:17:26;8.10;99.90
15143;DHT22;7672;50.834;6.286;2024-02-23T06:19:53;8.00;99.90
15143;DHT22;7672;50.834;6.286;2024-02-23T06:22:20;8.00;99.90
15143;DHT22;7672;50.834;6.286;2024-02-23T06:24:51;8.00;99.90
15143;DHT22;7672;50.834;6.286;2024-02-23T06:27:18;8.00;99.90
15143;DHT22;7672;50.834;6.286;2024-02-23T06:29:45;8.00;99.90
15143;DHT22;7672;50.834;6.286;2024-02-23T06:32:12;8.00;99.90
15143;DHT22;7672;50.834;6.286;2024-02-23T06:34:39;7.90;99.90
15143;DHT22;7672;50.834;6.286;2024-02-23T06:37:06;7.90;99.90
15143;DHT22;7672;50.834;6.286;2024-02-23T06:39:33;7.90;99.90
15143;DHT22;7672;50.834;6.286;2024-02-23T06:42:00;7.90;99.90
15143;DHT22;7672;50.834;6.286;2024-02-23T06:44:30;7.90;99.90
15143;DHT22;7672;50.834;6.286;2024-02-23T06:46:58;7.90;99.90
15143;DHT22;7672;50.834;6.286;2024-02-23T06:49:25;7.90;99.90
15143;DHT22;7672;50.834;6.286;2024-02-23T06:51:52;7.90;99.90
15143;DHT22;7672;50.834;6.286;2024-02-23T06:54:19;8.00;99.90
15143;DHT22;7672;50.834;6.286;2024-02-23T06:56:46;8.00;99.90
15143;DHT22;7672;50.834;6.286;2024-02-23T06:59:13;8.00;99.90
15143;DHT22;7672;50.834;6.286;2024-02-23T07:01:50;8.10;99.90
15143;DHT22;7672;50.834;6.286;2024-02-23T07:04:18;8.10;99.90
15143;DHT22;7672;50.834;6.286;2024-02-23T07:06:45;8.20;99.90
15143;DHT22;7672;50.834;6.286;2024-02-23T07:09:13;8.40;99.90
15143;DHT22;7672;50.834;6.286;2024-02-23T07:11:42;8.70;99.90
15143;DHT22;7672;50.834;6.286;2024-02-23T07:14:10;9.00;99.90
15143;DHT22;7672;50.834;6.286;2024-02-23T07:16:40;9.40;99.90
15143;DHT22;7672;50.834;6.286;2024-02-23T07:19:07;9.70;99.90
15143;DHT22;7672;50.834;6.286;2024-02-23T07:21:35;10.20;99.90
15143;DHT22;7672;50.834;6.286;2024-02-23T07:24:03;10.60;99.90
15143;DHT22;7672;50.834;6.286;2024-02-23T07:26:30;11.00;99.90
15143;DHT22;7672;50.834;6.286;2024-02-23T07:28:57;11.50;99.90
15143;DHT22;7672;50.834;6.286;2024-02-23T07:31:24;11.90;99.90
15143;DHT22;7672;50.834;6.286;2024-02-23T07:33:52;12.40;99.90
15143;DHT22;7672;50.834;6.286;2024-02-23T07:36:19;12.70;99.90
15143;DHT22;7672;50.834;6.286;2024-02-23T07:38:47;13.10;99.90
15143;DHT22;7672;50.834;6.286;2024-02-23T07:41:15;13.40;99.90
15143;DHT22;7672;50.834;6.286;2024-02-23T07:43:42;13.80;99.90
15143;DHT22;7672;50.834;6.286;2024-02-23T07:46:09;14.20;99.90
15143;DHT22;7672;50.834;6.286;2024-02-23T07:48:36;14.50;99.90
15143;DHT22;7672;50.834;6.286;2024-02-23T07:51:04;14.70;99.90
15143;DHT22;7672;50.834;6.286;2024-02-23T07:53:32;14.80;99.90
15143;DHT22;7672;50.834;6.286;2024-02-23T07:55:59;15.00;99.90
15143;DHT22;7672;50.834;6.286;2024-02-23T07:58:29;15.10;99.90
15143;DHT22;7672;50.834;6.286;2024-02-23T08:00:56;15.10;99.90
15143;DHT22;7672;50.834;6.286;2024-02-23T08:03:23;15.20;99.90
15143;DHT22;7672;50.834;6.286;2024-02-23T08:05:50;15.20;99.90
15143;DHT22;7672;50.834;6.286;2024-02-23T08:08:17;15.40;99.90
15143;DHT22;7672;50.834;6.286;2024-02-23T08:10:44;15.60;99.90
15143;DHT22;7672;50.834;6.286;2024-02-23T08:13:12;15.90;99.90
15143;DHT22;7672;50.834;6.286;2024-02-23T08:15:39;16.20;99.90
15143;DHT22;7672;50.834;6.286;2024-02-23T08:18:06;16.60;99.90
15143;DHT22;7672;50.834;6.286;2024-02-23T08:20:33;16.90;99.90
15143;DHT22;7672;50.834;6.286;2024-02-23T08:23:00;17.20;99.90
15143;DHT22;7672;50.834;6.286;2024-02-23T08:25:27;17.50;99.90
15143;DHT22;7672;50.834;6.286;2024-02-23T08:27:56;17.90;99.90
15143;DHT22;7672;50.834;6.286;2024-02-23T08:30:23;18.20;99.90
15143;DHT22;7672;50.834;6.286;2024-02-23T08:32:50;18.40;99.90
15143;DHT22;7672;50.834;6.286;2024-02-23T08:35:18;18.50;99.90
15143;DHT22;7672;50.834;6.286;2024-02-23T08:37:45;18.60;99.90
15143;DHT22;7672;50.834;6.286;2024-02-23T08:40:12;18.70;99.90
15143;DHT22;7672;50.834;6.286;2024-02-23T08:42:39;18.80;99.90
15143;DHT22;7672;50.834;6.286;2024-02-23T08:45:07;18.90;99.90
15143;DHT22;7672;50.834;6.286;2024-02-23T08:47:36;19.00;99.90
15143;DHT22;7672;50.834;6.286;2024-02-23T08:50:04;19.00;99.90
15143;DHT22;7672;50.834;6.286;2024-02-23T08:52:32;18.90;99.90
15143;DHT22;7672;50.834;6.286;2024-02-23T08:54:59;18.90;99.90
15143;DHT22;7672;50.834;6.286;2024-02-23T08:57:27;18.80;99.90
15143;DHT22;7672;50.834;6.286;2024-02-23T08:59:54;18.90;99.90
15143;DHT22;7672;50.834;6.286;2024-02-23T09:02:24;19.00;99.90
15143;DHT22;7672;50.834;6.286;2024-02-23T09:04:52;19.10;99.90
15143;DHT22;7672;50.834;6.286;2024-02-23T09:07:19;19.30;99.90
15143;DHT22;7672;50.834;6.286;2024-02-23T09:09:48;19.40;99.90
15143;DHT22;7672;50.834;6.286;2024-02-23T09:12:18;19.70;99.90
15143;DHT22;7672;50.834;6.286;2024-02-23T09:14:45;19.60;99.90
15143;DHT22;7672;50.834;6.286;2024-02-23T09:17:12;19.70;99.90
15143;DHT22;7672;50.834;6.286;2024-02-23T09:19:40;19.80;99.90
15143;DHT22;7672;50.834;6.286;2024-02-23T09:22:07;19.70;99.90
15143;DHT22;7672;50.834;6.286;2024-02-23T09:24:34;19.70;99.90
15143;DHT22;7672;50.834;6.286;2024-02-23T09:27:01;19.50;99.90
15143;DHT22;7672;50.834;6.286;2024-02-23T09:29:29;19.40;99.90
15143;DHT22;7672;50.834;6.286;2024-02-23T09:31:56;19.30;99.90
15143;DHT22;7672;50.834;6.286;2024-02-23T09:34:24;19.30;99.90
15143;DHT22;7672;50.834;6.286;2024-02-23T09:36:52;19.50;99.90
15143;DHT22;7672;50.834;6.286;2024-02-23T09:39:19;19.60;99.90
15143;DHT22;7672;50.834;6.286;2024-02-23T09:41:50;19.80;99.90
15143;DHT22;7672;50.834;6.286;2024-02-23T09:44:18;20.00;99.90
15143;DHT22;7672;50.834;6.286;2024-02-23T09:46:48;20.10;99.90
15143;DHT22;7672;50.834;6.286;2024-02-23T09:49:15;20.30;99.90
15143;DHT22;7672;50.834;6.286;2024-02-23T09:51:43;20.50;99.90
15143;DHT22;7672;50.834;6.286;2024-02-23T09:54:10;20.60;99.90
15143;DHT22;7672;50.834;6.286;2024-02-23T09:56:38;20.50;99.90
15143;DHT22;7672;50.834;6.286;2024-02-23T09:59:06;20.30;99.90
15143;DHT22;7672;50.834;6.286;2024-02-23T10:01:33;20.00;99.90
15143;DHT22;7672;50.834;6.286;2024-02-23T10:04:01;19.60;99.90
15143;DHT22;7672;50.834;6.286;2024-02-23T10:06:33;19.30;99.90
15143;DHT22;7672;50.834;6.286;2024-02-23T10:09:00;18.80;99.90
15143;DHT22;7672;50.834;6.286;2024-02-23T10:11:28;18.40;99.90
15143;DHT22;7672;50.834;6.286;2024-02-23T10:13:55;18.10;99.90
15143;DHT22;7672;50.834;6.286;2024-02-23T10:16:22;17.90;99.90
15143;DHT22;7672;50.834;6.286;2024-02-23T10:18:50;17.60;99.90
15143;DHT22;7672;50.834;6.286;2024-02-23T10:21:17;17.50;99.90
15143;DHT22;7672;50.834;6.286;2024-02-23T10:23:45;17.30;99.90
15143;DHT22;7672;50.834;6.286;2024-02-23T10:26:13;17.10;99.90
15143;DHT22;7672;50.834;6.286;2024-02-23T10:28:40;16.90;99.90
15143;DHT22;7672;50.834;6.286;2024-02-23T10:31:07;16.70;99.90
15143;DHT22;7672;50.834;6.286;2024-02-23T10:33:39;16.40;99.90
15143;DHT22;7672;50.834;6.286;2024-02-23T10:36:07;16.20;99.90
15143;DHT22;7672;50.834;6.286;2024-02-23T10:38:38;15.90;99.90
15143;DHT22;7672;50.834;6.286;2024-02-23T10:41:07;15.60;99.90
15143;DHT22;7672;50.834;6.286;2024-02-23T10:43:41;15.40;99.90
15143;DHT22;7672;50.834;6.286;2024-02-23T10:46:15;15.20;99.90
15143;DHT22;7672;50.834;6.286;2024-02-23T10:48:44;15.00;99.90
15143;DHT22;7672;50.834;6.286;2024-02-23T10:51:14;14.90;99.90
15143;DHT22;7672;50.834;6.286;2024-02-23T10:53:47;14.90;99.90
15143;DHT22;7672;50.834;6.286;2024-02-23T10:56:15;15.00;99.90
15143;DHT22;7672;50.834;6.286;2024-02-23T10:58:43;15.30;99.90
15143;DHT22;7672;50.834;6.286;2024-02-23T11:01:10;15.70;99.90
15143;DHT22;7672;50.834;6.286;2024-02-23T11:03:42;15.90;99.90
15143;DHT22;7672;50.834;6.286;2024-02-23T11:06:13;16.10;99.90
15143;DHT22;7672;50.834;6.286;2024-02-23T11:08:43;16.30;99.90
15143;DHT22;7672;50.834;6.286;2024-02-23T11:11:11;16.40;99.90
15143;DHT22;7672;50.834;6.286;2024-02-23T11:13:43;16.40;99.90
15143;DHT22;7672;50.834;6.286;2024-02-23T11:16:21;16.40;99.90
15143;DHT22;7672;50.834;6.286;2024-02-23T11:19:04;16.30;99.90
15143;DHT22;7672;50.834;6.286;2024-02-23T11:21:36;16.20;99.90
15143;DHT22;7672;50.834;6.286;2024-02-23T11:24:04;16.10;99.90
15143;DHT22;7672;50.834;6.286;2024-02-23T11:26:32;16.00;99.90
15143;DHT22;7672;50.834;6.286;2024-02-23T11:29:10;15.90;99.90
15143;DHT22;7672;50.834;6.286;2024-02-23T11:31:44;15.80;99.90
15143;DHT22;7672;50.834;6.286;2024-02-23T11:34:12;15.70;99.90
15143;DHT22;7672;50.834;6.286;2024-02-23T11:36:39;15.60;99.90
15143;DHT22;7672;50.834;6.286;2024-02-23T11:39:10;15.50;99.90
15143;DHT22;7672;50.834;6.286;2024-02-23T11:41:40;15.30;99.90
15143;DHT22;7672;50.834;6.286;2024-02-23T11:44:08;15.20;99.90
15143;DHT22;7672;50.834;6.286;2024-02-23T11:46:35;15.10;99.90
15143;DHT22;7672;50.834;6.286;2024-02-23T11:49:03;14.90;99.90
15143;DHT22;7672;50.834;6.286;2024-02-23T11:51:30;14.80;99.90
15143;DHT22;7672;50.834;6.286;2024-02-23T11:53:57;14.70;99.90
15143;DHT22;7672;50.834;6.286;2024-02-23T11:56:25;14.70;99.90
15143;DHT22;7672;50.834;6.286;2024-02-23T11:58:56;14.60;99.90
15143;DHT22;7672;50.834;6.286;2024-02-23T12:01:23;14.60;99.90
15143;DHT22;7672;50.834;6.286;2024-02-23T12:03:50;14.60;99.90
15143;DHT22;7672;50.834;6.286;2024-02-23T12:06:17;14.60;99.90
15143;DHT22;7672;50.834;6.286;2024-02-23T12:08:44;14.60;99.90
15143;DHT22;7672;50.834;6.286;2024-02-23T12:11:14;14.60;99.90
15143;DHT22;7672;50.834;6.286;2024-02-23T12:13:41;14.50;99.90
15143;DHT22;7672;50.834;6.286;2024-02-23T12:16:08;14.50;99.90
15143;DHT22;7672;50.834;6.286;2024-02-23T12:18:36;14.60;99.90
15143;DHT22;7672;50.834;6.286;2024-02-23T12:21:08;14.60;99.90
15143;DHT22;7672;50.834;6.286;2024-02-23T12:23:40;14.70;99.90
15143;DHT22;7672;50.834;6.286;2024-02-23T12:26:09;14.80;99.90
15143;DHT22;7672;50.834;6.286;2024-02-23T12:28:40;14.90;99.90
15143;DHT22;7672;50.834;6.286;2024-02-23T12:31:07;15.00;99.90
15143;DHT22;7672;50.834;6.286;2024-02-23T12:33:36;15.10;99.90
15143;DHT22;7672;50.834;6.286;2024-02-23T12:36:08;15.20;99.90
15143;DHT22;7672;50.834;6.286;2024-02-23T12:38:36;15.30;99.90
15143;DHT22;7672;50.834;6.286;2024-02-23T12:41:04;15.40;99.90
15143;DHT22;7672;50.834;6.286;2024-02-23T12:43:32;15.50;99.90
15143;DHT22;7672;50.834;6.286;2024-02-23T12:45:59;15.60;99.90
15143;DHT22;7672;50.834;6.286;2024-02-23T12:48:28;15.60;99.90
15143;DHT22;7672;50.834;6.286;2024-02-23T12:50:55;15.60;99.90
15143;DHT22;7672;50.834;6.286;2024-02-23T12:53:39;15.60;99.90
15143;DHT22;7672;50.834;6.286;2024-02-23T12:56:12;15.70;99.90
15143;DHT22;7672;50.834;6.286;2024-02-23T12:58:44;15.70;99.90
15143;DHT22;7672;50.834;6.286;2024-02-23T13:01:11;15.70;99.90
15143;DHT22;7672;50.834;6.286;2024-02-23T13:03:39;15.70;99.90
15143;DHT22;7672;50.834;6.286;2024-02-23T13:06:10;15.70;99.90
15143;DHT22;7672;50.834;6.286;2024-02-23T13:08:37;15.70;99.90
15143;DHT22;7672;50.834;6.286;2024-02-23T13:11:06;15.60;99.90
15143;DHT22;7672;50.834;6.286;2024-02-23T13:13:33;15.60;99.90
15143;DHT22;7672;50.834;6.286;2024-02-23T13:16:01;15.60;99.90
15143;DHT22;7672;50.834;6.286;2024-02-23T13:18:28;15.60;99.90
15143;DHT22;7672;50.834;6.286;2024-02-23T13:20:55;15.60;99.90
15143;DHT22;7672;50.834;6.286;2024-02-23T13:23:22;15.70;99.90
15143;DHT22;7672;50.834;6.286;2024-02-23T13:25:49;15.70;99.90
15143;DHT22;7672;50.834;6.286;2024-02-23T13:28:16;15.60;99.90
15143;DHT22;7672;50.834;6.286;2024-02-23T13:30:43;15.60;99.90
15143;DHT22;7672;50.834;6.286;2024-02-23T13:33:11;15.60;99.90
15143;DHT22;7672;50.834;6.286;2024-02-23T13:35:38;15.60;99.90
15143;DHT22;7672;50.834;6.286;2024-02-23T13:38:06;15.50;99.90
15143;DHT22;7672;50.834;6.286;2024-02-23T13:40:34;15.50;99.90
15143;DHT22;7672;50.834;6.286;2024-02-23T13:43:01;15.40;99.90
15143;DHT22;7672;50.834;6.286;2024-02-23T13:45:28;15.30;99.90
15143;DHT22;7672;50.834;6.286;2024-02-23T13:47:59;15.20;99.90
15143;DHT22;7672;50.834;6.286;2024-02-23T13:50:28;15.10;99.90
15143;DHT22;7672;50.834;6.286;2024-02-23T13:52:56;15.00;99.90
15143;DHT22;7672;50.834;6.286;2024-02-23T13:55:23;14.90;99.90
15143;DHT22;7672;50.834;6.286;2024-02-23T13:57:51;14.80;99.90
15143;DHT22;7672;50.834;6.286;2024-02-23T14:00:18;14.70;99.90
15143;DHT22;7672;50.834;6.286;2024-02-23T14:02:47;14.70;99.90
15143;DHT22;7672;50.834;6.286;2024-02-23T14:05:15;14.60;99.90
15143;DHT22;7672;50.834;6.286;2024-02-23T14:07:45;14.40;99.90
15143;DHT22;7672;50.834;6.286;2024-02-23T14:10:12;14.40;99.90
15143;DHT22;7672;50.834;6.286;2024-02-23T14:12:40;14.40;99.90
15143;DHT22;7672;50.834;6.286;2024-02-23T14:15:08;14.30;99.90
15143;DHT22;7672;50.834;6.286;2024-02-23T14:17:37;14.20;99.90
15143;DHT22;7672;50.834;6.286;2024-02-23T14:20:05;14.10;99.90
15143;DHT22;7672;50.834;6.286;2024-02-23T14:22:33;14.10;99.90
15143;DHT22;7672;50.834;6.286;2024-02-23T14:25:00;14.10;99.90
15143;DHT22;7672;50.834;6.286;2024-02-23T14:27:27;14.00;99.90
15143;DHT22;7672;50.834;6.286;2024-02-23T14:29:58;14.00;99.90
15143;DHT22;7672;50.834;6.286;2024-02-23T14:32:25;13.90;99.90
15143;DHT22;7672;50.834;6.286;2024-02-23T14:34:52;13.90;99.90
15143;DHT22;7672;50.834;6.286;2024-02-23T14:37:20;13.90;99.90
15143;DHT22;7672;50.834;6.286;2024-02-23T14:39:47;13.90;99.90
15143;DHT22;7672;50.834;6.286;2024-02-23T14:42:14;13.90;99.90
15143;DHT22;7672;50.834;6.286;2024-02-23T14:44:41;13.80;99.90
15143;DHT22;7672;50.834;6.286;2024-02-23T14:47:08;13.80;99.90
15143;DHT22;7672;50.834;6.286;2024-02-23T14:49:35;13.80;99.90
15143;DHT22;7672;50.834;6.286;2024-02-23T14:52:03;13.70;99.90
15143;DHT22;7672;50.834;6.286;2024-02-23T14:54:31;13.70;99.90
15143;DHT22;7672;50.834;6.286;2024-02-23T14:56:59;13.70;99.90
15143;DHT22;7672;50.834;6.286;2024-02-23T14:59:26;13.70;99.90
15143;DHT22;7672;50.834;6.286;2024-02-23T15:01:54;13.60;99.90
15143;DHT22;7672;50.834;6.286;2024-02-23T15:04:21;13.60;99.90
15143;DHT22;7672;50.834;6.286;2024-02-23T15:06:48;13.60;99.90
15143;DHT22;7672;50.834;6.286;2024-02-23T15:09:15;13.70;99.90
15143;DHT22;7672;50.834;6.286;2024-02-23T15:11:42;13.50;99.90
15143;DHT22;7672;50.834;6.286;2024-02-23T15:14:10;13.50;99.90
15143;DHT22;7672;50.834;6.286;2024-02-23T15:16:37;13.60;99.90
15143;DHT22;7672;50.834;6.286;2024-02-23T15:19:04;13.40;99.90
15143;DHT22;7672;50.834;6.286;2024-02-23T15:21:35;13.40;99.90
15143;DHT22;7672;50.834;6.286;2024-02-23T15:24:06;13.40;99.90
15143;DHT22;7672;50.834;6.286;2024-02-23T15:26:34;13.40;99.90
15143;DHT22;7672;50.834;6.286;2024-02-23T15:29:01;13.30;99.90
15143;DHT22;7672;50.834;6.286;2024-02-23T15:31:32;13.30;99.90
15143;DHT22;7672;50.834;6.286;2024-02-23T15:33:58;13.30;99.90
15143;DHT22;7672;50.834;6.286;2024-02-23T15:36:26;13.30;99.90
15143;DHT22;7672;50.834;6.286;2024-02-23T15:38:55;13.20;99.90
15143;DHT22;7672;50.834;6.286;2024-02-23T15:41:30;13.20;99.90
15143;DHT22;7672;50.834;6.286;2024-02-23T15:43:58;13.20;99.90
15143;DHT22;7672;50.834;6.286;2024-02-23T15:46:25;13.20;99.90
15143;DHT22;7672;50.834;6.286;2024-02-23T15:48:54;13.20;99.90
15143;DHT22;7672;50.834;6.286;2024-02-23T15:51:21;13.20;99.90
15143;DHT22;7672;50.834;6.286;2024-02-23T15:54:07;13.30;99.90
15143;DHT22;7672;50.834;6.286;2024-02-23T15:56:34;13.20;99.90
15143;DHT22;7672;50.834;6.286;2024-02-23T15:59:02;13.20;99.90
15143;DHT22;7672;50.834;6.286;2024-02-23T16:01:35;13.20;99.90